sensor_id;sensor_type;location;lat;lon;timestamp;P1;durP1;ratioP1;P2;durP2;ratioP2
8675;SDS011;4375;52.486;13.424;2024-03-06T00:02:10;44.20;;;17.13;;
8675;SDS011;4375;52.486;13.424;2024-03-06T00:04:36;42.50;;;17.67;;
8675;SDS011;4375;52.486;13.424;2024-03-06T00:07:02;34.73;;;15.67;;
8675;SDS011;4375;52.486;13.424;2024-03-06T00:09:28;39.30;;;17.13;;
8675;SDS011;4375;52.486;13.424;2024-03-06T00:11:54;37.20;;;15.47;;
8675;SDS011;4375;52.486;13.424;2024-03-06T00:14:20;46.10;;;17.67;;
8675;SDS011;4375;52.486;13.424;2024-03-06T00:16:47;40.43;;;16.90;;
8675;SDS011;4375;52.486;13.424;2024-03-06T00:19:15;40.90;;;17.33;;
8675;SDS011;4375;52.486;13.424;2024-03-06T00:21:44;40.17;;;17.43;;
8675;SDS011;4375;52.486;13.424;2024-03-06T00:24:13;43.17;;;17.17;;
8675;SDS011;4375;52.486;13.424;2024-03-06T00:26:40;38.80;;;17.80;;
8675;SDS011;4375;52.486;13.424;2024-03-06T00:29:06;41.73;;;18.23;;
8675;SDS011;4375;52.486;13.424;2024-03-06T00:31:32;39.67;;;18.03;;
8675;SDS011;4375;52.486;13.424;2024-03-06T00:33:57;36.43;;;17.70;;
8675;SDS011;4375;52.486;13.424;2024-03-06T00:36:23;37.17;;;17.00;;
8675;SDS011;4375;52.486;13.424;2024-03-06T00:38:48;38.17;;;16.43;;
8675;SDS011;4375;52.486;13.424;2024-03-06T00:41:14;39.17;;;18.20;;
8675;SDS011;4375;52.486;13.424;2024-03-06T00:43:40;40.30;;;16.80;;
8675;SDS011;4375;52.486;13.424;2024-03-06T00:46:05;39.33;;;17.27;;
8675;SDS011;4375;52.486;13.424;2024-03-06T00:48:31;39.87;;;17.37;;
8675;SDS011;4375;52.486;13.424;2024-03-06T00:50:56;42.40;;;17.37;;
8675;SDS011;4375;52.486;13.424;2024-03-06T01:00:35;41.60;;;16.67;;
8675;SDS011;4375;52.486;13.424;2024-03-06T01:03:25;37.40;;;17.40;;
8675;SDS011;4375;52.486;13.424;2024-03-06T01:06:24;35.70;;;16.40;;
8675;SDS011;4375;52.486;13.424;2024-03-06T01:09:24;37.47;;;15.20;;
8675;SDS011;4375;52.486;13.424;2024-03-06T01:15:08;34.10;;;15.43;;
8675;SDS011;4375;52.486;13.424;2024-03-06T01:18:10;36.80;;;16.07;;
8675;SDS011;4375;52.486;13.424;2024-03-06T01:20:54;38.33;;;17.40;;
8675;SDS011;4375;52.486;13.424;2024-03-06T01:27:12;36.87;;;16.27;;
8675;SDS011;4375;52.486;13.424;2024-03-06T01:36:32;40.27;;;16.03;;
8675;SDS011;4375;52.486;13.424;2024-03-06T01:40:10;38.97;;;15.87;;
8675;SDS011;4375;52.486;13.424;2024-03-06T01:50:17;34.53;;;14.93;;
8675;SDS011;4375;52.486;13.424;2024-03-06T01:53:28;32.80;;;16.10;;
8675;SDS011;4375;52.486;13.424;2024-03-06T02:00:34;37.80;;;16.80;;
8675;SDS011;4375;52.486;13.424;2024-03-06T02:07:28;39.37;;;16.73;;
8675;SDS011;4375;52.486;13.424;2024-03-06T02:10:39;36.77;;;15.13;;
8675;SDS011;4375;52.486;13.424;2024-03-06T02:21:19;38.53;;;16.23;;
8675;SDS011;4375;52.486;13.424;2024-03-06T02:24:21;36.80;;;16.57;;
8675;SDS011;4375;52.486;13.424;2024-03-06T02:27:38;36.67;;;16.13;;
8675;SDS011;4375;52.486;13.424;2024-03-06T02:33:52;37.20;;;16.23;;
8675;SDS011;4375;52.486;13.424;2024-03-06T02:36:32;39.00;;;16.60;;
8675;SDS011;4375;52.486;13.424;2024-03-06T02:39:44;35.13;;;16.77;;
8675;SDS011;4375;52.486;13.424;2024-03-06T02:42:48;34.00;;;15.30;;
8675;SDS011;4375;52.486;13.424;2024-03-06T02:45:29;44.83;;;16.13;;
8675;SDS011;4375;52.486;13.424;2024-03-06T02:54:24;34.07;;;16.30;;
8675;SDS011;4375;52.486;13.424;2024-03-06T03:00:34;38.27;;;16.03;;
8675;SDS011;4375;52.486;13.424;2024-03-06T03:03:29;43.33;;;18.10;;
8675;SDS011;4375;52.486;13.424;2024-03-06T03:06:05;38.57;;;16.20;;
8675;SDS011;4375;52.486;13.424;2024-03-06T03:11:39;38.30;;;18.13;;
8675;SDS011;4375;52.486;13.424;2024-03-06T03:14:22;38.57;;;17.50;;
8675;SDS011;4375;52.486;13.424;2024-03-06T03:17:10;40.50;;;17.10;;
8675;SDS011;4375;52.486;13.424;2024-03-06T03:20:50;33.53;;;15.90;;
8675;SDS011;4375;52.486;13.424;2024-03-06T03:26:26;40.03;;;17.80;;
8675;SDS011;4375;52.486;13.424;2024-03-06T03:29:45;37.30;;;16.53;;
8675;SDS011;4375;52.486;13.424;2024-03-06T03:32:37;40.17;;;17.57;;
8675;SDS011;4375;52.486;13.424;2024-03-06T03:38:15;40.23;;;16.50;;
8675;SDS011;4375;52.486;13.424;2024-03-06T03:44:35;41.67;;;17.43;;
8675;SDS011;4375;52.486;13.424;2024-03-06T03:47:18;37.40;;;16.90;;
8675;SDS011;4375;52.486;13.424;2024-03-06T03:50:22;38.87;;;17.30;;
8675;SDS011;4375;52.486;13.424;2024-03-06T03:53:31;36.57;;;16.87;;
8675;SDS011;4375;52.486;13.424;2024-03-06T03:59:06;43.77;;;17.03;;
8675;SDS011;4375;52.486;13.424;2024-03-06T04:02:14;36.53;;;16.17;;
8675;SDS011;4375;52.486;13.424;2024-03-06T04:05:37;36.70;;;15.80;;
8675;SDS011;4375;52.486;13.424;2024-03-06T04:08:22;38.33;;;16.30;;
8675;SDS011;4375;52.486;13.424;2024-03-06T04:11:45;48.57;;;15.57;;
8675;SDS011;4375;52.486;13.424;2024-03-06T04:22:31;45.60;;;17.83;;
8675;SDS011;4375;52.486;13.424;2024-03-06T04:25:10;39.65;;;16.10;;
8675;SDS011;4375;52.486;13.424;2024-03-06T04:28:40;43.73;;;17.57;;
8675;SDS011;4375;52.486;13.424;2024-03-06T04:37:49;41.57;;;17.60;;
8675;SDS011;4375;52.486;13.424;2024-03-06T04:43:38;39.03;;;17.30;;
8675;SDS011;4375;52.486;13.424;2024-03-06T04:46:20;37.70;;;16.53;;
8675;SDS011;4375;52.486;13.424;2024-03-06T04:52:00;38.47;;;18.90;;
8675;SDS011;4375;52.486;13.424;2024-03-06T04:54:28;41.27;;;16.50;;
8675;SDS011;4375;52.486;13.424;2024-03-06T04:57:10;42.20;;;17.67;;
8675;SDS011;4375;52.486;13.424;2024-03-06T04:59:59;35.97;;;16.53;;
8675;SDS011;4375;52.486;13.424;2024-03-06T05:02:43;39.37;;;16.80;;
8675;SDS011;4375;52.486;13.424;2024-03-06T05:05:13;36.27;;;16.80;;
8675;SDS011;4375;52.486;13.424;2024-03-06T05:07:43;40.17;;;17.40;;
8675;SDS011;4375;52.486;13.424;2024-03-06T05:10:53;38.40;;;16.90;;
8675;SDS011;4375;52.486;13.424;2024-03-06T05:13:52;41.70;;;17.27;;
8675;SDS011;4375;52.486;13.424;2024-03-06T05:16:28;37.90;;;15.67;;
8675;SDS011;4375;52.486;13.424;2024-03-06T05:19:21;39.27;;;17.30;;
8675;SDS011;4375;52.486;13.424;2024-03-06T05:22:20;43.90;;;16.80;;
8675;SDS011;4375;52.486;13.424;2024-03-06T05:25:14;40.70;;;18.00;;
8675;SDS011;4375;52.486;13.424;2024-03-06T05:27:50;39.27;;;16.80;;
8675;SDS011;4375;52.486;13.424;2024-03-06T05:30:24;37.40;;;15.70;;
8675;SDS011;4375;52.486;13.424;2024-03-06T05:32:56;40.97;;;16.10;;
8675;SDS011;4375;52.486;13.424;2024-03-06T05:35:31;37.50;;;17.10;;
8675;SDS011;4375;52.486;13.424;2024-03-06T05:38:05;39.60;;;16.53;;
8675;SDS011;4375;52.486;13.424;2024-03-06T05:40:40;39.30;;;16.67;;
8675;SDS011;4375;52.486;13.424;2024-03-06T05:43:20;39.87;;;16.60;;
8675;SDS011;4375;52.486;13.424;2024-03-06T05:46:25;37.23;;;15.60;;
8675;SDS011;4375;52.486;13.424;2024-03-06T05:49:00;39.03;;;16.70;;
8675;SDS011;4375;52.486;13.424;2024-03-06T05:51:47;37.73;;;16.60;;
8675;SDS011;4375;52.486;13.424;2024-03-06T05:54:26;40.83;;;17.17;;
8675;SDS011;4375;52.486;13.424;2024-03-06T05:57:00;38.27;;;16.40;;
8675;SDS011;4375;52.486;13.424;2024-03-06T05:59:42;40.37;;;17.83;;
8675;SDS011;4375;52.486;13.424;2024-03-06T06:02:21;43.17;;;19.20;;
8675;SDS011;4375;52.486;13.424;2024-03-06T06:08:07;38.07;;;17.20;;
8675;SDS011;4375;52.486;13.424;2024-03-06T06:10:35;41.53;;;17.40;;
8675;SDS011;4375;52.486;13.424;2024-03-06T06:13:01;45.53;;;18.03;;
8675;SDS011;4375;52.486;13.424;2024-03-06T06:15:29;43.67;;;17.93;;
8675;SDS011;4375;52.486;13.424;2024-03-06T06:17:55;50.90;;;17.90;;
8675;SDS011;4375;52.486;13.424;2024-03-06T06:20:21;39.63;;;17.00;;
8675;SDS011;4375;52.486;13.424;2024-03-06T06:22:46;39.67;;;17.77;;
8675;SDS011;4375;52.486;13.424;2024-03-06T06:25:12;40.70;;;18.73;;
8675;SDS011;4375;52.486;13.424;2024-03-06T06:27:38;40.67;;;17.90;;
8675;SDS011;4375;52.486;13.424;2024-03-06T06:30:04;46.70;;;17.40;;
8675;SDS011;4375;52.486;13.424;2024-03-06T06:32:30;45.43;;;17.90;;
8675;SDS011;4375;52.486;13.424;2024-03-06T06:34:56;42.13;;;18.80;;
8675;SDS011;4375;52.486;13.424;2024-03-06T06:37:22;42.40;;;19.00;;
8675;SDS011;4375;52.486;13.424;2024-03-06T06:39:48;45.27;;;18.60;;
8675;SDS011;4375;52.486;13.424;2024-03-06T06:42:14;45.13;;;18.47;;
8675;SDS011;4375;52.486;13.424;2024-03-06T06:44:39;47.93;;;19.67;;
8675;SDS011;4375;52.486;13.424;2024-03-06T06:47:06;41.23;;;18.87;;
8675;SDS011;4375;52.486;13.424;2024-03-06T06:49:32;46.90;;;19.40;;
8675;SDS011;4375;52.486;13.424;2024-03-06T06:51:59;47.83;;;18.80;;
8675;SDS011;4375;52.486;13.424;2024-03-06T06:54:24;45.43;;;19.00;;
8675;SDS011;4375;52.486;13.424;2024-03-06T06:56:50;43.93;;;18.73;;
8675;SDS011;4375;52.486;13.424;2024-03-06T06:59:15;43.97;;;17.30;;
8675;SDS011;4375;52.486;13.424;2024-03-06T07:01:41;43.17;;;18.07;;
8675;SDS011;4375;52.486;13.424;2024-03-06T07:04:07;39.60;;;18.47;;
8675;SDS011;4375;52.486;13.424;2024-03-06T07:06:32;42.23;;;18.10;;
8675;SDS011;4375;52.486;13.424;2024-03-06T07:08:58;50.70;;;18.20;;
8675;SDS011;4375;52.486;13.424;2024-03-06T07:11:23;42.87;;;17.90;;
8675;SDS011;4375;52.486;13.424;2024-03-06T07:13:49;37.50;;;18.07;;
8675;SDS011;4375;52.486;13.424;2024-03-06T07:16:15;37.43;;;16.90;;
8675;SDS011;4375;52.486;13.424;2024-03-06T07:18:40;42.00;;;19.63;;
8675;SDS011;4375;52.486;13.424;2024-03-06T07:21:06;42.43;;;18.77;;
8675;SDS011;4375;52.486;13.424;2024-03-06T07:23:32;40.80;;;18.00;;
8675;SDS011;4375;52.486;13.424;2024-03-06T07:25:58;36.50;;;16.77;;
8675;SDS011;4375;52.486;13.424;2024-03-06T07:28:24;42.30;;;16.80;;
8675;SDS011;4375;52.486;13.424;2024-03-06T07:30:50;40.77;;;16.47;;
8675;SDS011;4375;52.486;13.424;2024-03-06T07:33:16;46.20;;;18.00;;
8675;SDS011;4375;52.486;13.424;2024-03-06T07:35:42;39.27;;;17.63;;
8675;SDS011;4375;52.486;13.424;2024-03-06T07:38:07;44.73;;;18.80;;
8675;SDS011;4375;52.486;13.424;2024-03-06T07:40:33;37.37;;;16.80;;
8675;SDS011;4375;52.486;13.424;2024-03-06T07:42:59;39.23;;;18.03;;
8675;SDS011;4375;52.486;13.424;2024-03-06T07:45:25;44.20;;;17.10;;
8675;SDS011;4375;52.486;13.424;2024-03-06T07:47:51;42.30;;;17.23;;
8675;SDS011;4375;52.486;13.424;2024-03-06T07:50:17;38.80;;;16.90;;
8675;SDS011;4375;52.486;13.424;2024-03-06T07:52:44;35.27;;;15.47;;
8675;SDS011;4375;52.486;13.424;2024-03-06T07:55:11;37.53;;;13.90;;
8675;SDS011;4375;52.486;13.424;2024-03-06T07:57:36;34.87;;;15.07;;
8675;SDS011;4375;52.486;13.424;2024-03-06T08:00:02;33.57;;;13.60;;
8675;SDS011;4375;52.486;13.424;2024-03-06T08:02:39;34.73;;;14.87;;
8675;SDS011;4375;52.486;13.424;2024-03-06T08:05:07;31.77;;;14.03;;
8675;SDS011;4375;52.486;13.424;2024-03-06T08:07:37;33.67;;;15.07;;
8675;SDS011;4375;52.486;13.424;2024-03-06T08:10:06;34.57;;;14.10;;
8675;SDS011;4375;52.486;13.424;2024-03-06T08:12:42;37.50;;;14.33;;
8675;SDS011;4375;52.486;13.424;2024-03-06T08:15:10;36.20;;;14.63;;
8675;SDS011;4375;52.486;13.424;2024-03-06T08:17:38;31.20;;;13.23;;
8675;SDS011;4375;52.486;13.424;2024-03-06T08:20:04;33.73;;;13.43;;
8675;SDS011;4375;52.486;13.424;2024-03-06T08:22:32;34.40;;;14.07;;
8675;SDS011;4375;52.486;13.424;2024-03-06T08:25:12;31.90;;;13.13;;
8675;SDS011;4375;52.486;13.424;2024-03-06T08:27:41;35.90;;;14.33;;
8675;SDS011;4375;52.486;13.424;2024-03-06T08:30:07;40.80;;;15.80;;
8675;SDS011;4375;52.486;13.424;2024-03-06T08:32:34;37.77;;;15.20;;
8675;SDS011;4375;52.486;13.424;2024-03-06T08:35:02;35.77;;;13.27;;
8675;SDS011;4375;52.486;13.424;2024-03-06T08:37:30;35.73;;;13.53;;
8675;SDS011;4375;52.486;13.424;2024-03-06T08:39:57;33.87;;;13.30;;
8675;SDS011;4375;52.486;13.424;2024-03-06T08:42:24;37.60;;;14.23;;
8675;SDS011;4375;52.486;13.424;2024-03-06T08:44:50;35.23;;;13.50;;
8675;SDS011;4375;52.486;13.424;2024-03-06T08:47:15;30.77;;;12.93;;
8675;SDS011;4375;52.486;13.424;2024-03-06T08:49:41;31.67;;;13.07;;
8675;SDS011;4375;52.486;13.424;2024-03-06T08:52:07;27.30;;;11.23;;
8675;SDS011;4375;52.486;13.424;2024-03-06T08:54:35;28.77;;;10.37;;
8675;SDS011;4375;52.486;13.424;2024-03-06T08:57:01;28.17;;;11.30;;
8675;SDS011;4375;52.486;13.424;2024-03-06T08:59:28;26.17;;;10.77;;
8675;SDS011;4375;52.486;13.424;2024-03-06T09:01:54;29.93;;;11.73;;
8675;SDS011;4375;52.486;13.424;2024-03-06T09:04:21;30.07;;;10.60;;
8675;SDS011;4375;52.486;13.424;2024-03-06T09:06:47;28.60;;;10.87;;
8675;SDS011;4375;52.486;13.424;2024-03-06T09:09:13;28.63;;;9.93;;
8675;SDS011;4375;52.486;13.424;2024-03-06T09:11:40;26.80;;;9.10;;
8675;SDS011;4375;52.486;13.424;2024-03-06T09:14:07;29.37;;;11.07;;
8675;SDS011;4375;52.486;13.424;2024-03-06T09:16:34;25.70;;;11.10;;
8675;SDS011;4375;52.486;13.424;2024-03-06T09:19:00;28.97;;;10.90;;
8675;SDS011;4375;52.486;13.424;2024-03-06T09:21:25;25.87;;;10.47;;
8675;SDS011;4375;52.486;13.424;2024-03-06T09:23:51;31.90;;;10.70;;
8675;SDS011;4375;52.486;13.424;2024-03-06T09:26:17;28.80;;;11.03;;
8675;SDS011;4375;52.486;13.424;2024-03-06T09:28:42;29.67;;;11.07;;
8675;SDS011;4375;52.486;13.424;2024-03-06T09:31:08;29.47;;;12.13;;
8675;SDS011;4375;52.486;13.424;2024-03-06T09:33:34;30.10;;;11.37;;
8675;SDS011;4375;52.486;13.424;2024-03-06T09:35:59;28.07;;;10.97;;
8675;SDS011;4375;52.486;13.424;2024-03-06T09:38:25;28.93;;;10.83;;
8675;SDS011;4375;52.486;13.424;2024-03-06T09:40:51;30.13;;;10.77;;
8675;SDS011;4375;52.486;13.424;2024-03-06T09:43:20;26.67;;;9.47;;
8675;SDS011;4375;52.486;13.424;2024-03-06T09:45:46;25.07;;;10.07;;
8675;SDS011;4375;52.486;13.424;2024-03-06T09:48:13;26.07;;;9.40;;
8675;SDS011;4375;52.486;13.424;2024-03-06T09:50:40;25.97;;;9.40;;
8675;SDS011;4375;52.486;13.424;2024-03-06T09:53:10;26.50;;;10.73;;
8675;SDS011;4375;52.486;13.424;2024-03-06T09:55:40;25.70;;;9.83;;
8675;SDS011;4375;52.486;13.424;2024-03-06T09:58:06;23.83;;;9.70;;
8675;SDS011;4375;52.486;13.424;2024-03-06T10:00:36;24.40;;;8.60;;
8675;SDS011;4375;52.486;13.424;2024-03-06T10:03:03;33.80;;;10.60;;
8675;SDS011;4375;52.486;13.424;2024-03-06T10:05:33;24.30;;;9.10;;
8675;SDS011;4375;52.486;13.424;2024-03-06T10:08:02;26.67;;;8.80;;
8675;SDS011;4375;52.486;13.424;2024-03-06T10:10:31;26.27;;;9.17;;
8675;SDS011;4375;52.486;13.424;2024-03-06T10:12:57;23.77;;;8.77;;
8675;SDS011;4375;52.486;13.424;2024-03-06T10:15:25;26.10;;;9.20;;
8675;SDS011;4375;52.486;13.424;2024-03-06T10:17:52;23.70;;;9.17;;
8675;SDS011;4375;52.486;13.424;2024-03-06T10:20:34;26.60;;;9.90;;
8675;SDS011;4375;52.486;13.424;2024-03-06T10:23:00;26.70;;;9.40;;
8675;SDS011;4375;52.486;13.424;2024-03-06T10:25:26;24.50;;;9.23;;
8675;SDS011;4375;52.486;13.424;2024-03-06T10:28:05;23.77;;;8.97;;
8675;SDS011;4375;52.486;13.424;2024-03-06T10:30:32;26.57;;;9.33;;
8675;SDS011;4375;52.486;13.424;2024-03-06T10:33:04;24.33;;;9.10;;
8675;SDS011;4375;52.486;13.424;2024-03-06T10:35:31;25.10;;;9.67;;
8675;SDS011;4375;52.486;13.424;2024-03-06T10:37:59;26.23;;;10.70;;
8675;SDS011;4375;52.486;13.424;2024-03-06T10:40:26;27.80;;;10.60;;
8675;SDS011;4375;52.486;13.424;2024-03-06T10:42:54;28.03;;;10.13;;
8675;SDS011;4375;52.486;13.424;2024-03-06T10:45:21;28.53;;;9.80;;
8675;SDS011;4375;52.486;13.424;2024-03-06T10:47:52;24.33;;;9.53;;
8675;SDS011;4375;52.486;13.424;2024-03-06T10:50:19;26.40;;;9.23;;
8675;SDS011;4375;52.486;13.424;2024-03-06T10:52:45;28.40;;;10.27;;
8675;SDS011;4375;52.486;13.424;2024-03-06T10:55:12;23.13;;;8.33;;
8675;SDS011;4375;52.486;13.424;2024-03-06T10:57:38;29.40;;;9.90;;
8675;SDS011;4375;52.486;13.424;2024-03-06T11:00:06;25.70;;;8.63;;
8675;SDS011;4375;52.486;13.424;2024-03-06T11:02:32;23.63;;;9.10;;
8675;SDS011;4375;52.486;13.424;2024-03-06T11:05:00;22.00;;;7.67;;
8675;SDS011;4375;52.486;13.424;2024-03-06T11:07:30;22.67;;;8.13;;
8675;SDS011;4375;52.486;13.424;2024-03-06T11:09:58;29.77;;;9.97;;
8675;SDS011;4375;52.486;13.424;2024-03-06T11:12:37;29.83;;;11.40;;
8675;SDS011;4375;52.486;13.424;2024-03-06T11:15:13;28.63;;;10.50;;
8675;SDS011;4375;52.486;13.424;2024-03-06T11:17:41;25.20;;;9.60;;
8675;SDS011;4375;52.486;13.424;2024-03-06T11:20:08;28.53;;;10.97;;
8675;SDS011;4375;52.486;13.424;2024-03-06T11:28:22;25.90;;;9.50;;
8675;SDS011;4375;52.486;13.424;2024-03-06T11:30:54;23.83;;;8.47;;
8675;SDS011;4375;52.486;13.424;2024-03-06T11:33:43;23.63;;;8.40;;
8675;SDS011;4375;52.486;13.424;2024-03-06T11:36:20;25.23;;;8.97;;
8675;SDS011;4375;52.486;13.424;2024-03-06T11:38:57;24.90;;;9.03;;
8675;SDS011;4375;52.486;13.424;2024-03-06T11:41:23;30.20;;;8.53;;
8675;SDS011;4375;52.486;13.424;2024-03-06T11:43:51;26.10;;;9.20;;
8675;SDS011;4375;52.486;13.424;2024-03-06T11:46:21;30.50;;;11.70;;
8675;SDS011;4375;52.486;13.424;2024-03-06T11:48:56;33.30;;;13.80;;
8675;SDS011;4375;52.486;13.424;2024-03-06T11:51:22;36.93;;;15.40;;
8675;SDS011;4375;52.486;13.424;2024-03-06T11:53:51;33.60;;;13.03;;
8675;SDS011;4375;52.486;13.424;2024-03-06T11:56:20;28.13;;;11.73;;
8675;SDS011;4375;52.486;13.424;2024-03-06T11:58:46;30.50;;;12.50;;
8675;SDS011;4375;52.486;13.424;2024-03-06T12:01:13;31.37;;;12.67;;
8675;SDS011;4375;52.486;13.424;2024-03-06T12:03:39;28.97;;;12.77;;
8675;SDS011;4375;52.486;13.424;2024-03-06T12:06:05;28.43;;;12.53;;
8675;SDS011;4375;52.486;13.424;2024-03-06T12:08:33;30.67;;;14.23;;
8675;SDS011;4375;52.486;13.424;2024-03-06T12:11:01;31.23;;;14.63;;
8675;SDS011;4375;52.486;13.424;2024-03-06T12:13:29;30.00;;;14.40;;
8675;SDS011;4375;52.486;13.424;2024-03-06T12:15:55;31.13;;;13.10;;
8675;SDS011;4375;52.486;13.424;2024-03-06T12:18:20;40.03;;;16.67;;
8675;SDS011;4375;52.486;13.424;2024-03-06T12:20:46;43.50;;;19.40;;
8675;SDS011;4375;52.486;13.424;2024-03-06T12:23:21;34.83;;;15.70;;
8675;SDS011;4375;52.486;13.424;2024-03-06T12:26:06;37.53;;;17.93;;
8675;SDS011;4375;52.486;13.424;2024-03-06T12:28:36;33.40;;;16.87;;
8675;SDS011;4375;52.486;13.424;2024-03-06T12:31:03;35.50;;;17.30;;
8675;SDS011;4375;52.486;13.424;2024-03-06T12:33:29;32.37;;;14.30;;
8675;SDS011;4375;52.486;13.424;2024-03-06T12:36:13;30.37;;;14.13;;
8675;SDS011;4375;52.486;13.424;2024-03-06T12:38:39;29.80;;;13.07;;
8675;SDS011;4375;52.486;13.424;2024-03-06T12:41:05;30.47;;;14.20;;
8675;SDS011;4375;52.486;13.424;2024-03-06T12:43:31;31.37;;;14.70;;
8675;SDS011;4375;52.486;13.424;2024-03-06T12:45:58;29.40;;;14.10;;
8675;SDS011;4375;52.486;13.424;2024-03-06T12:48:24;27.93;;;12.17;;
8675;SDS011;4375;52.486;13.424;2024-03-06T12:50:54;28.07;;;12.57;;
8675;SDS011;4375;52.486;13.424;2024-03-06T12:53:23;28.20;;;12.53;;
8675;SDS011;4375;52.486;13.424;2024-03-06T12:55:48;28.90;;;11.70;;
8675;SDS011;4375;52.486;13.424;2024-03-06T12:58:14;28.60;;;12.50;;
8675;SDS011;4375;52.486;13.424;2024-03-06T13:00:40;30.10;;;13.70;;
8675;SDS011;4375;52.486;13.424;2024-03-06T13:03:06;30.50;;;12.90;;
8675;SDS011;4375;52.486;13.424;2024-03-06T13:05:32;31.23;;;13.17;;
8675;SDS011;4375;52.486;13.424;2024-03-06T13:07:58;32.70;;;13.30;;
8675;SDS011;4375;52.486;13.424;2024-03-06T13:10:26;29.40;;;13.10;;
8675;SDS011;4375;52.486;13.424;2024-03-06T13:12:52;30.80;;;13.10;;
8675;SDS011;4375;52.486;13.424;2024-03-06T13:15:17;27.53;;;12.20;;
8675;SDS011;4375;52.486;13.424;2024-03-06T13:17:43;32.37;;;11.57;;
8675;SDS011;4375;52.486;13.424;2024-03-06T13:20:09;28.20;;;11.60;;
8675;SDS011;4375;52.486;13.424;2024-03-06T13:22:36;29.03;;;13.13;;
8675;SDS011;4375;52.486;13.424;2024-03-06T13:25:02;32.03;;;13.30;;
8675;SDS011;4375;52.486;13.424;2024-03-06T13:27:28;35.13;;;14.10;;
8675;SDS011;4375;52.486;13.424;2024-03-06T13:29:54;35.67;;;15.20;;
8675;SDS011;4375;52.486;13.424;2024-03-06T13:32:20;37.00;;;14.33;;
8675;SDS011;4375;52.486;13.424;2024-03-06T13:34:45;40.93;;;15.13;;
8675;SDS011;4375;52.486;13.424;2024-03-06T13:37:11;33.60;;;14.77;;
8675;SDS011;4375;52.486;13.424;2024-03-06T13:39:37;36.23;;;15.40;;
8675;SDS011;4375;52.486;13.424;2024-03-06T13:42:04;38.87;;;15.97;;
8675;SDS011;4375;52.486;13.424;2024-03-06T13:44:31;38.87;;;17.00;;
8675;SDS011;4375;52.486;13.424;2024-03-06T13:46:56;35.63;;;15.23;;
8675;SDS011;4375;52.486;13.424;2024-03-06T13:49:33;35.77;;;15.47;;
8675;SDS011;4375;52.486;13.424;2024-03-06T13:52:04;37.00;;;16.30;;
8675;SDS011;4375;52.486;13.424;2024-03-06T13:54:30;41.47;;;16.60;;
8675;SDS011;4375;52.486;13.424;2024-03-06T13:56:56;42.43;;;16.97;;
8675;SDS011;4375;52.486;13.424;2024-03-06T13:59:27;45.70;;;18.63;;
8675;SDS011;4375;52.486;13.424;2024-03-06T14:01:56;44.80;;;17.23;;
8675;SDS011;4375;52.486;13.424;2024-03-06T14:04:22;39.07;;;16.27;;
8675;SDS011;4375;52.486;13.424;2024-03-06T14:06:49;38.37;;;16.07;;
8675;SDS011;4375;52.486;13.424;2024-03-06T14:09:15;39.27;;;16.90;;
8675;SDS011;4375;52.486;13.424;2024-03-06T14:11:40;40.20;;;16.83;;
8675;SDS011;4375;52.486;13.424;2024-03-06T14:14:06;35.13;;;13.93;;
8675;SDS011;4375;52.486;13.424;2024-03-06T14:16:33;38.10;;;15.07;;
8675;SDS011;4375;52.486;13.424;2024-03-06T14:18:59;33.37;;;13.63;;
8675;SDS011;4375;52.486;13.424;2024-03-06T14:21:25;37.70;;;13.77;;
8675;SDS011;4375;52.486;13.424;2024-03-06T14:23:51;32.93;;;12.90;;
8675;SDS011;4375;52.486;13.424;2024-03-06T14:26:16;28.80;;;11.63;;
8675;SDS011;4375;52.486;13.424;2024-03-06T14:28:42;39.07;;;16.20;;
8675;SDS011;4375;52.486;13.424;2024-03-06T14:31:07;32.50;;;13.20;;
8675;SDS011;4375;52.486;13.424;2024-03-06T14:33:35;37.57;;;13.37;;
8675;SDS011;4375;52.486;13.424;2024-03-06T14:36:03;35.47;;;13.10;;
8675;SDS011;4375;52.486;13.424;2024-03-06T14:38:28;40.10;;;17.83;;
8675;SDS011;4375;52.486;13.424;2024-03-06T14:40:54;48.23;;;18.07;;
8675;SDS011;4375;52.486;13.424;2024-03-06T14:43:20;49.77;;;19.77;;
8675;SDS011;4375;52.486;13.424;2024-03-06T14:45:45;47.90;;;19.40;;
8675;SDS011;4375;52.486;13.424;2024-03-06T14:48:11;47.43;;;17.07;;
8675;SDS011;4375;52.486;13.424;2024-03-06T14:50:37;43.73;;;16.77;;
8675;SDS011;4375;52.486;13.424;2024-03-06T14:53:02;41.40;;;15.63;;
8675;SDS011;4375;52.486;13.424;2024-03-06T14:55:28;39.37;;;16.53;;
8675;SDS011;4375;52.486;13.424;2024-03-06T14:57:53;44.10;;;17.60;;
8675;SDS011;4375;52.486;13.424;2024-03-06T15:00:19;42.43;;;16.40;;
8675;SDS011;4375;52.486;13.424;2024-03-06T15:02:48;42.77;;;16.47;;
8675;SDS011;4375;52.486;13.424;2024-03-06T15:05:13;46.57;;;16.93;;
8675;SDS011;4375;52.486;13.424;2024-03-06T15:07:39;44.93;;;16.70;;
8675;SDS011;4375;52.486;13.424;2024-03-06T15:10:05;45.83;;;19.63;;
8675;SDS011;4375;52.486;13.424;2024-03-06T15:12:33;54.53;;;19.13;;
8675;SDS011;4375;52.486;13.424;2024-03-06T15:14:59;48.07;;;18.50;;
8675;SDS011;4375;52.486;13.424;2024-03-06T15:17:25;44.77;;;17.57;;
8675;SDS011;4375;52.486;13.424;2024-03-06T15:19:51;44.53;;;18.33;;
8675;SDS011;4375;52.486;13.424;2024-03-06T15:22:17;54.63;;;22.93;;
8675;SDS011;4375;52.486;13.424;2024-03-06T15:24:43;49.90;;;17.93;;
8675;SDS011;4375;52.486;13.424;2024-03-06T15:27:10;47.40;;;19.73;;
8675;SDS011;4375;52.486;13.424;2024-03-06T15:29:36;47.00;;;18.07;;
8675;SDS011;4375;52.486;13.424;2024-03-06T15:32:02;51.00;;;18.53;;
8675;SDS011;4375;52.486;13.424;2024-03-06T15:34:28;47.07;;;18.90;;
8675;SDS011;4375;52.486;13.424;2024-03-06T15:36:53;43.63;;;18.20;;
8675;SDS011;4375;52.486;13.424;2024-03-06T15:39:19;46.30;;;20.50;;
8675;SDS011;4375;52.486;13.424;2024-03-06T15:41:46;48.30;;;21.50;;
8675;SDS011;4375;52.486;13.424;2024-03-06T15:44:12;45.17;;;18.47;;
8675;SDS011;4375;52.486;13.424;2024-03-06T15:46:37;44.60;;;18.40;;
8675;SDS011;4375;52.486;13.424;2024-03-06T15:49:19;44.57;;;18.67;;
8675;SDS011;4375;52.486;13.424;2024-03-06T15:51:46;57.53;;;21.70;;
8675;SDS011;4375;52.486;13.424;2024-03-06T15:54:11;43.30;;;17.97;;
8675;SDS011;4375;52.486;13.424;2024-03-06T15:56:37;39.00;;;17.77;;
8675;SDS011;4375;52.486;13.424;2024-03-06T15:59:03;44.67;;;18.83;;
8675;SDS011;4375;52.486;13.424;2024-03-06T16:01:28;41.30;;;17.27;;
8675;SDS011;4375;52.486;13.424;2024-03-06T16:03:54;49.00;;;18.90;;
8675;SDS011;4375;52.486;13.424;2024-03-06T16:06:19;47.07;;;18.87;;
8675;SDS011;4375;52.486;13.424;2024-03-06T16:08:45;46.27;;;17.50;;
8675;SDS011;4375;52.486;13.424;2024-03-06T16:11:11;42.73;;;18.50;;
8675;SDS011;4375;52.486;13.424;2024-03-06T16:13:37;35.83;;;16.07;;
8675;SDS011;4375;52.486;13.424;2024-03-06T16:16:02;37.63;;;16.27;;
8675;SDS011;4375;52.486;13.424;2024-03-06T16:18:28;35.80;;;14.70;;
8675;SDS011;4375;52.486;13.424;2024-03-06T16:20:54;34.97;;;16.07;;
8675;SDS011;4375;52.486;13.424;2024-03-06T16:23:20;36.90;;;15.80;;
8675;SDS011;4375;52.486;13.424;2024-03-06T16:25:46;43.30;;;19.00;;
8675;SDS011;4375;52.486;13.424;2024-03-06T16:28:12;38.47;;;17.77;;
8675;SDS011;4375;52.486;13.424;2024-03-06T16:30:38;34.07;;;14.40;;
8675;SDS011;4375;52.486;13.424;2024-03-06T16:33:04;36.90;;;14.80;;
8675;SDS011;4375;52.486;13.424;2024-03-06T16:35:30;31.63;;;13.57;;
8675;SDS011;4375;52.486;13.424;2024-03-06T16:37:57;32.33;;;14.30;;
8675;SDS011;4375;52.486;13.424;2024-03-06T16:40:22;33.27;;;15.37;;
8675;SDS011;4375;52.486;13.424;2024-03-06T16:42:48;34.13;;;15.17;;
8675;SDS011;4375;52.486;13.424;2024-03-06T16:45:14;33.97;;;15.77;;
8675;SDS011;4375;52.486;13.424;2024-03-06T16:47:40;30.77;;;13.53;;